Nephi, UT (84648)

12:46 PM MDT on August 26, 2016 (GMT -0600)
Fountain Green | | Change Station

Elev 5912 ft 39.63 °N, 111.63 °W | Updated 10 minutes ago

Scattered Clouds
Scattered Clouds
80.6 °F
Feels Like 79 °F
N
2.2
Wind Variable Wind from NNE

Today
High -- | Low -- °F
--% Chance of Precip.
Yesterday
High -- | Low -- °F
Precip. -- in
Pressure 30.07 in
Visibility 10.0 miles
Clouds Scattered Clouds 12000 ft
Scattered Clouds 15000 ft
Heat Index 79 °F
Dew Point 44 °F
Humidity 28%
Rainfall 0.00 in
Snow Depth Not available.
6:50 AM 8:06 PM
Waning Crescent, 32% visible
METAR KPVU 261753Z VRB03KT 10SM SCT120 SCT150 24/04 A3007
Pressure 30.07 in
Visibility 10.0 miles
Clouds Scattered Clouds 12000 ft
Scattered Clouds 15000 ft
Heat Index 79 °F
Dew Point 44 °F
Humidity 28%
Rainfall 0.00 in
Snow Depth Not available.
6:50 AM 8:06 PM
Waning Crescent, 32% visible
METAR KPVU 261753Z VRB03KT 10SM SCT120 SCT150 24/04 A3007

10-Day Weather Forecast

Almanac

Astronomy

Aug. 26, 2016 Rise Set
Actual Time
Civil Twilight
Nautical Twilight
Astronomical Twilight
Moon
Length of Visible Light
Length of Day
Tomorrow will be .
, % of the Moon is Illuminated

Today's Extremes

State Highs State Lows

Community

WunderPhotos

Upload Photos

1,935,175 photos uploaded!

WunderBlog® & News

Nearby

Air Quality

  Air Quality AQ Index Pollutant
Not available.

Snow Depth

Station Depth Elevation

Earthquake Activity

City Distance Mag. Time & Date
Minimum magnitude displayed is 2.5.

Coastal Water Temperatures

Place Temperature

Stations

Nearby Weather Stations

Station Location Temp. Windchill Dew Point Humidity Wind Precip. Elev Updated Type
                   

Watches & Warnings

There are currently no watches in effect.